Shiseimaru — JD2936 — position and weather

sailwx.info

Track history (hours):
 
Tides and Currents Weather Stations Pressure Air Temp Water Temp Dewpoint Dewpoint Depression Visibility Wind Speed Wind Dir Waves Ship Positions

Shiseimaru

Last reported at 2018-Jun-25 11:30 UTC. Time now 2018-Jun-25 11:51 UTC.
Position N 34°39' E 135°15'.

Length 73 m; draft 3.8 m.

Type: Cargo ship. MMSI: 431001029.

Date/timePositionNaut miles runAvg speedWind from/ knotsBaromVisibWave heightAir tempDewpointWater temp
2018-Jun-25 11:30N 34°39' E 135°15'0 0.0
2018-Jun-25 11:00N 34°39' E 135°15'0 0.0
2018-Jun-25 10:30N 34°39' E 135°15'0 0.0
2018-Jun-25 10:00N 34°39' E 135°15'0 0.0
2018-Jun-25 09:30N 34°39' E 135°15'0 0.0
2018-Jun-25 09:00N 34°39' E 135°15'0 0.0
2018-Jun-25 08:30N 34°39' E 135°15'0 0.1
2018-Jun-25 08:00N 34°39' E 135°15'3 5.8
2018-Jun-25 07:31N 34°37' E 135°12'611.2
2018-Jun-25 07:00N 34°35' E 135°06'610.4
2018-Jun-25 06:29N 34°37' E 134°60'610.1
2018-Jun-25 05:53N 34°38' E 134°53'410.9
2018-Jun-25 05:30N 34°41' E 134°49'3 0.4
2018-Jun-24 21:27N 34°44' E 134°49'2 4.3
2018-Jun-24 20:59N 34°42' E 134°48'2 4.4
2018-Jun-24 20:30N 34°40' E 134°50'611.3
2018-Jun-24 20:00N 34°37' E 134°56'611.5
2018-Jun-24 19:30N 34°37' E 135°03'611.3
2018-Jun-24 19:00N 34°37' E 135°10'510.3
2018-Jun-24 18:30N 34°39' E 135°15'3 6.8
2018-Jun-24 18:00N 34°42' E 135°15'0 0.0
2018-Jun-24 17:22N 34°42' E 135°15'0 0.0
2018-Jun-24 16:52N 34°42' E 135°15'0 0.0
2018-Jun-24 16:22N 34°42' E 135°15'0 0.0
2018-Jun-24 15:58N 34°42' E 135°15'0 0.0
2018-Jun-24 15:28N 34°42' E 135°15'0 0.0
2018-Jun-24 14:58N 34°42' E 135°15'0 0.0
2018-Jun-24 14:28N 34°42' E 135°15'0 0.0
2018-Jun-24 13:46N 34°42' E 135°15'0 0.0
2018-Jun-24 13:22N 34°42' E 135°15'0 0.0
2018-Jun-24 12:58N 34°42' E 135°15'0 0.0
2018-Jun-24 12:28N 34°42' E 135°15'0 0.0
2018-Jun-24 11:58N 34°42' E 135°15'0 0.0
2018-Jun-24 11:28N 34°42' E 135°15'0 0.0
2018-Jun-24 10:52N 34°42' E 135°15'0 0.0
2018-Jun-24 10:28N 34°42' E 135°15'0 0.0
2018-Jun-24 09:58N 34°42' E 135°15'0 0.0
2018-Jun-24 09:28N 34°42' E 135°15'0 0.0
2018-Jun-24 08:52N 34°42' E 135°15'0 0.0
2018-Jun-24 08:28N 34°42' E 135°15'0 0.0
2018-Jun-24 07:58N 34°42' E 135°15'0 0.0
2018-Jun-24 07:28N 34°42' E 135°15'0 0.0
2018-Jun-24 06:58N 34°42' E 135°15'0 0.0
2018-Jun-24 06:28N 34°42' E 135°15'0 0.0
2018-Jun-24 05:58N 34°42' E 135°15'0 0.0
2018-Jun-24 05:28N 34°42' E 135°15'0 0.0
2018-Jun-24 04:58N 34°42' E 135°15'0 0.0
2018-Jun-24 04:26N 34°42' E 135°15'0 0.4
2018-Jun-24 04:00N 34°42' E 135°15'4 7.1
2018-Jun-24 03:31N 34°39' E 135°15'0 0.1
2018-Jun-24 02:59N 34°39' E 135°15'0 0.0
2018-Jun-24 02:29N 34°39' E 135°15'0 0.0
2018-Jun-24 01:53N 34°39' E 135°15'0 0.0
2018-Jun-24 01:29N 34°39' E 135°15'0 0.0
2018-Jun-24 00:59N 34°39' E 135°15'0 0.0
2018-Jun-24 00:29N 34°39' E 135°15'0 0.0
2018-Jun-23 23:59N 34°39' E 135°15'0 0.1
2018-Jun-23 23:29N 34°39' E 135°15'0 0.0
2018-Jun-23 22:59N 34°39' E 135°15'0 0.1
2018-Jun-23 22:29N 34°39' E 135°15'0 0.0
2018-Jun-23 21:59N 34°39' E 135°15'0 0.0
2018-Jun-23 21:29N 34°39' E 135°15'0 0.0
2018-Jun-23 20:59N 34°39' E 135°15'0 0.0
2018-Jun-23 20:29N 34°39' E 135°15'0 0.0
2018-Jun-23 19:59N 34°39' E 135°15'0 0.0
2018-Jun-23 19:23N 34°39' E 135°15'0 0.0
2018-Jun-23 18:59N 34°39' E 135°15'0 0.0
2018-Jun-23 18:29N 34°39' E 135°15'0 0.0
2018-Jun-23 17:59N 34°39' E 135°15'0 0.0
2018-Jun-23 17:11N 34°39' E 135°15'0 0.1
2018-Jun-23 16:59N 34°39' E 135°15'0 0.0
2018-Jun-23 16:29N 34°39' E 135°15'0 0.0
2018-Jun-23 15:59N 34°39' E 135°15'0 0.0
2018-Jun-23 15:29N 34°39' E 135°15'0 0.1
2018-Jun-23 14:59N 34°39' E 135°15'0 0.1
2018-Jun-23 14:29N 34°39' E 135°15'3 6.2
2018-Jun-23 14:00N 34°37' E 135°12'610.4
2018-Jun-23 13:29N 34°35' E 135°06'610.8
2018-Jun-23 12:56N 34°37' E 134°59'410.1
2018-Jun-23 12:30N 34°37' E 134°54'611.4
2018-Jun-23 12:00N 34°41' E 134°49'2 0.2
2018-Jun-23 03:00N 34°43' E 134°49'6 9.5
2018-Jun-23 02:25N 34°38' E 134°53'4 8.8
2018-Jun-23 01:57N 34°38' E 134°57'4 8.2
2018-Jun-23 01:28N 34°37' E 135°02'4 8.8
2018-Jun-23 01:00N 34°36' E 135°07'611.7
2018-Jun-23 00:30N 34°38' E 135°14'5 9.5
2018-Jun-23 00:00N 34°42' E 135°15'0 0.1
2018-Jun-22 23:28N 34°42' E 135°15'0 0.0
2018-Jun-22 22:58N 34°42' E 135°15'0 0.0
2018-Jun-22 22:28N 34°42' E 135°15'0 0.0
2018-Jun-22 22:01N 34°42' E 135°15'0 0.0
2018-Jun-22 21:30N 34°42' E 135°15'0 0.0
2018-Jun-22 21:00N 34°42' E 135°15'0 0.0
2018-Jun-22 20:28N 34°42' E 135°15'0 0.0
2018-Jun-22 19:58N 34°42' E 135°15'0 0.0
2018-Jun-22 19:28N 34°42' E 135°15'0 0.0
2018-Jun-22 18:46N 34°42' E 135°15'0 0.0
2018-Jun-22 18:28N 34°42' E 135°15'0 0.0
2018-Jun-22 17:52N 34°42' E 135°15'0 0.0
2018-Jun-22 17:22N 34°42' E 135°15'0 0.0
2018-Jun-22 16:58N 34°42' E 135°15'0 0.0
2018-Jun-22 16:28N 34°42' E 135°15'0 0.0
2018-Jun-22 15:59N 34°42' E 135°15'0 0.0
2018-Jun-22 15:28N 34°42' E 135°15'0 0.0
2018-Jun-22 14:58N 34°42' E 135°15'0 0.0
2018-Jun-22 14:29N 34°42' E 135°15'0 0.0
2018-Jun-22 13:58N 34°42' E 135°15'0 0.0
2018-Jun-22 13:28N 34°42' E 135°15'0 0.0
2018-Jun-22 12:58N 34°42' E 135°15'0 0.0
2018-Jun-22 12:28N 34°42' E 135°15'0 0.0
2018-Jun-22 11:58N 34°42' E 135°15'0 0.0
2018-Jun-22 11:28N 34°42' E 135°15'0 0.0
2018-Jun-22 10:59N 34°42' E 135°15'0 0.0
2018-Jun-22 10:29N 34°42' E 135°15'0 0.3
2018-Jun-22 10:00N 34°42' E 135°15'2 4.7
2018-Jun-22 09:30N 34°40' E 135°15'1 2.4
2018-Jun-22 09:00N 34°39' E 135°15'0 0.1
2018-Jun-22 08:30N 34°39' E 135°15'0 0.0
2018-Jun-22 08:00N 34°39' E 135°15'0 0.1
2018-Jun-22 07:30N 34°39' E 135°15'0 0.0
2018-Jun-22 06:54N 34°39' E 135°15'0 0.0
2018-Jun-22 06:30N 34°39' E 135°15'0 0.0
2018-Jun-22 06:00N 34°39' E 135°15'0 0.1
2018-Jun-22 05:30N 34°39' E 135°15'0 0.0
2018-Jun-22 05:00N 34°39' E 135°15'0 0.0
2018-Jun-22 04:24N 34°39' E 135°15'0 0.0
2018-Jun-22 04:00N 34°39' E 135°15'0 0.0
2018-Jun-22 03:24N 34°39' E 135°15'0 0.0
2018-Jun-22 03:00N 34°39' E 135°15'0 0.0
2018-Jun-22 02:30N 34°39' E 135°15'0 0.0
2018-Jun-22 02:00N 34°39' E 135°15'0 0.0
2018-Jun-22 01:24N 34°39' E 135°15'0 0.1
2018-Jun-22 01:00N 34°39' E 135°15'0 0.0
2018-Jun-22 00:18N 34°39' E 135°15'0 0.0
2018-Jun-22 00:00N 34°39' E 135°15'2 5.0
2018-Jun-21 23:30N 34°37' E 135°13'510.5
2018-Jun-21 23:00N 34°35' E 135°07'611.1
2018-Jun-21 22:26N 34°37' E 134°59'610.5
2018-Jun-21 21:50N 34°38' E 134°52'411.2
2018-Jun-21 21:30N 34°41' E 134°49'1 0.2
2018-Jun-21 13:10N 34°42' E 134°49'2 9.8
2018-Jun-21 13:00N 34°41' E 134°49'0 0.2
2018-Jun-21 12:21N 34°40' E 134°49'0 0.0
2018-Jun-21 11:51N 34°40' E 134°49'0 0.0
2018-Jun-21 11:27N 34°40' E 134°49'0 0.0
2018-Jun-21 10:57N 34°40' E 134°49'0 0.0
2018-Jun-21 10:27N 34°40' E 134°49'0 0.0
2018-Jun-21 09:57N 34°40' E 134°49'0 0.0
2018-Jun-21 09:27N 34°40' E 134°49'0 0.0
2018-Jun-21 07:57N 34°40' E 134°49'0 0.0
2018-Jun-21 04:51N 34°41' E 134°49'0 0.0
2018-Jun-21 04:27N 34°40' E 134°49'0 0.0
2018-Jun-21 03:54N 34°40' E 134°49'0 0.0
2018-Jun-21 03:24N 34°40' E 134°49'0 0.0
2018-Jun-21 02:39N 34°40' E 134°49'0 0.0
2018-Jun-21 02:18N 34°40' E 134°49'0 0.0
2018-Jun-21 02:00N 34°40' E 134°49'0 0.0
2018-Jun-21 01:30N 34°40' E 134°49'0 0.0
2018-Jun-21 01:00N 34°40' E 134°49'0 0.0
2018-Jun-21 00:27N 34°40' E 134°49'0 0.0
2018-Jun-20 23:57N 34°40' E 134°49'0 0.0
2018-Jun-20 23:27N 34°40' E 134°49'0 0.0
2018-Jun-20 22:57N 34°40' E 134°49'0 0.0
2018-Jun-20 22:27N 34°40' E 134°49'0 0.0
2018-Jun-20 21:57N 34°40' E 134°49'0 0.0
2018-Jun-20 21:28N 34°40' E 134°49'0 0.0
2018-Jun-20 20:58N 34°40' E 134°49'0 0.0
2018-Jun-20 20:28N 34°40' E 134°49'0 0.0
2018-Jun-20 19:58N 34°40' E 134°49'0 0.0
2018-Jun-20 19:28N 34°40' E 134°49'0 0.0
2018-Jun-20 18:55N 34°40' E 134°49'0 0.1
2018-Jun-20 17:46N 34°41' E 134°49'0 0.0
2018-Jun-20 17:28N 34°41' E 134°49'0 0.0
2018-Jun-20 16:58N 34°41' E 134°49'0 0.0
2018-Jun-20 16:28N 34°41' E 134°49'0 0.0
2018-Jun-20 15:52N 34°41' E 134°49'0 0.0
2018-Jun-20 15:28N 34°41' E 134°49'0 0.0
2018-Jun-20 14:58N 34°41' E 134°49'0 0.0
2018-Jun-20 14:16N 34°40' E 134°49'0 0.1
2018-Jun-20 13:58N 34°40' E 134°49'0 0.1
2018-Jun-20 13:22N 34°40' E 134°49'0 0.0
2018-Jun-20 12:58N 34°40' E 134°49'0 0.0
2018-Jun-20 12:28N 34°40' E 134°49'0 0.0
2018-Jun-20 11:58N 34°40' E 134°49'0 0.0
2018-Jun-20 11:19N 34°40' E 134°49'0 0.0
2018-Jun-20 10:58N 34°40' E 134°49'0 0.0
2018-Jun-20 10:28N 34°40' E 134°49'0 0.0
2018-Jun-20 09:52N 34°40' E 134°49'0 0.0
2018-Jun-20 09:28N 34°40' E 134°49'0 0.0
2018-Jun-20 08:58N 34°40' E 134°49'0 0.0
2018-Jun-20 08:28N 34°40' E 134°49'0 0.0
2018-Jun-20 07:58N 34°41' E 134°49'0 0.0
2018-Jun-20 07:16N 34°41' E 134°49'0 0.0
2018-Jun-20 06:58N 34°41' E 134°49'0 0.0
2018-Jun-20 06:28N 34°41' E 134°49'0 0.1
2018-Jun-20 05:55N 34°41' E 134°49'0 0.0
2018-Jun-20 03:22N 34°41' E 134°49'0 0.1
2018-Jun-20 02:58N 34°40' E 134°49'0 0.0
2018-Jun-20 02:28N 34°40' E 134°49'0 0.0
2018-Jun-20 01:58N 34°40' E 134°49'2 3.3
2018-Jun-20 01:14N 34°43' E 134°51'1 6.5
2018-Jun-20 01:01N 34°41' E 134°50'1 0.4
2018-Jun-19 22:04N 34°42' E 134°52'1 2.9
2018-Jun-19 21:40N 34°41' E 134°51'1 9.6
2018-Jun-19 21:30N 34°40' E 134°49'0 0.4
2018-Jun-19 20:28N 34°40' E 134°49'0 0.1
2018-Jun-19 19:55N 34°40' E 134°49'0 0.0
2018-Jun-19 16:49N 34°40' E 134°49'0 0.1
2018-Jun-19 16:07N 34°40' E 134°49'0 0.2
2018-Jun-19 15:49N 34°40' E 134°49'0 0.1
2018-Jun-19 15:25N 34°40' E 134°49'8 8.9
2018-Jun-19 14:35N 34°36' E 134°41'210.7
2018-Jun-19 14:23N 34°35' E 134°39'710.9
2018-Jun-19 13:44N 34°31' E 134°32'211.1
2018-Jun-19 13:30N 34°30' E 134°29'810.8
2018-Jun-19 12:47N 34°26' E 134°21'  
Track history (hours):
 
Tides and Currents Weather Stations Pressure Air Temp Water Temp Dewpoint Dewpoint Depression Visibility Wind Speed Wind Dir Waves Ship Positions

Shiseimaru

Last reported at 2018-Jun-25 11:30 UTC. Time now 2018-Jun-25 11:51 UTC.
Position N 34°39' E 135°15'.

Length 73 m; draft 3.8 m.

Type: Cargo ship. MMSI: 431001029.

Date/timePositionNaut miles runAvg speedWind from/ knotsBaromVisibWave heightAir tempDewpointWater temp
2018-Jun-25 11:30N 34°39' E 135°15'0 0.0
2018-Jun-25 11:00N 34°39' E 135°15'0 0.0
2018-Jun-25 10:30N 34°39' E 135°15'0 0.0
2018-Jun-25 10:00N 34°39' E 135°15'0 0.0
2018-Jun-25 09:30N 34°39' E 135°15'0 0.0
2018-Jun-25 09:00N 34°39' E 135°15'0 0.0
2018-Jun-25 08:30N 34°39' E 135°15'0 0.1
2018-Jun-25 08:00N 34°39' E 135°15'3 5.8
2018-Jun-25 07:31N 34°37' E 135°12'611.2
2018-Jun-25 07:00N 34°35' E 135°06'610.4
2018-Jun-25 06:29N 34°37' E 134°60'610.1
2018-Jun-25 05:53N 34°38' E 134°53'410.9
2018-Jun-25 05:30N 34°41' E 134°49'3 0.4
2018-Jun-24 21:27N 34°44' E 134°49'2 4.3
2018-Jun-24 20:59N 34°42' E 134°48'2 4.4
2018-Jun-24 20:30N 34°40' E 134°50'611.3
2018-Jun-24 20:00N 34°37' E 134°56'611.5
2018-Jun-24 19:30N 34°37' E 135°03'611.3
2018-Jun-24 19:00N 34°37' E 135°10'510.3
2018-Jun-24 18:30N 34°39' E 135°15'3 6.8
2018-Jun-24 18:00N 34°42' E 135°15'0 0.0
2018-Jun-24 17:22N 34°42' E 135°15'0 0.0
2018-Jun-24 16:52N 34°42' E 135°15'0 0.0
2018-Jun-24 16:22N 34°42' E 135°15'0 0.0
2018-Jun-24 15:58N 34°42' E 135°15'0 0.0
2018-Jun-24 15:28N 34°42' E 135°15'0 0.0
2018-Jun-24 14:58N 34°42' E 135°15'0 0.0
2018-Jun-24 14:28N 34°42' E 135°15'0 0.0
2018-Jun-24 13:46N 34°42' E 135°15'0 0.0
2018-Jun-24 13:22N 34°42' E 135°15'0 0.0
2018-Jun-24 12:58N 34°42' E 135°15'0 0.0
2018-Jun-24 12:28N 34°42' E 135°15'0 0.0
2018-Jun-24 11:58N 34°42' E 135°15'0 0.0
2018-Jun-24 11:28N 34°42' E 135°15'0 0.0
2018-Jun-24 10:52N 34°42' E 135°15'0 0.0
2018-Jun-24 10:28N 34°42' E 135°15'0 0.0
2018-Jun-24 09:58N 34°42' E 135°15'0 0.0
2018-Jun-24 09:28N 34°42' E 135°15'0 0.0
2018-Jun-24 08:52N 34°42' E 135°15'0 0.0
2018-Jun-24 08:28N 34°42' E 135°15'0 0.0
2018-Jun-24 07:58N 34°42' E 135°15'0 0.0
2018-Jun-24 07:28N 34°42' E 135°15'0 0.0
2018-Jun-24 06:58N 34°42' E 135°15'0 0.0
2018-Jun-24 06:28N 34°42' E 135°15'0 0.0
2018-Jun-24 05:58N 34°42' E 135°15'0 0.0
2018-Jun-24 05:28N 34°42' E 135°15'0 0.0
2018-Jun-24 04:58N 34°42' E 135°15'0 0.0
2018-Jun-24 04:26N 34°42' E 135°15'0 0.4
2018-Jun-24 04:00N 34°42' E 135°15'4 7.1
2018-Jun-24 03:31N 34°39' E 135°15'0 0.1
2018-Jun-24 02:59N 34°39' E 135°15'0 0.0
2018-Jun-24 02:29N 34°39' E 135°15'0 0.0
2018-Jun-24 01:53N 34°39' E 135°15'0 0.0
2018-Jun-24 01:29N 34°39' E 135°15'0 0.0
2018-Jun-24 00:59N 34°39' E 135°15'0 0.0
2018-Jun-24 00:29N 34°39' E 135°15'0 0.0
2018-Jun-23 23:59N 34°39' E 135°15'0 0.1
2018-Jun-23 23:29N 34°39' E 135°15'0 0.0
2018-Jun-23 22:59N 34°39' E 135°15'0 0.1
2018-Jun-23 22:29N 34°39' E 135°15'0 0.0
2018-Jun-23 21:59N 34°39' E 135°15'0 0.0
2018-Jun-23 21:29N 34°39' E 135°15'0 0.0
2018-Jun-23 20:59N 34°39' E 135°15'0 0.0
2018-Jun-23 20:29N 34°39' E 135°15'0 0.0
2018-Jun-23 19:59N 34°39' E 135°15'0 0.0
2018-Jun-23 19:23N 34°39' E 135°15'0 0.0
2018-Jun-23 18:59N 34°39' E 135°15'0 0.0
2018-Jun-23 18:29N 34°39' E 135°15'0 0.0
2018-Jun-23 17:59N 34°39' E 135°15'0 0.0
2018-Jun-23 17:11N 34°39' E 135°15'0 0.1
2018-Jun-23 16:59N 34°39' E 135°15'0 0.0
2018-Jun-23 16:29N 34°39' E 135°15'0 0.0
2018-Jun-23 15:59N 34°39' E 135°15'0 0.0
2018-Jun-23 15:29N 34°39' E 135°15'0 0.1
2018-Jun-23 14:59N 34°39' E 135°15'0 0.1
2018-Jun-23 14:29N 34°39' E 135°15'3 6.2
2018-Jun-23 14:00N 34°37' E 135°12'610.4
2018-Jun-23 13:29N 34°35' E 135°06'610.8
2018-Jun-23 12:56N 34°37' E 134°59'410.1
2018-Jun-23 12:30N 34°37' E 134°54'611.4
2018-Jun-23 12:00N 34°41' E 134°49'2 0.2
2018-Jun-23 03:00N 34°43' E 134°49'6 9.5
2018-Jun-23 02:25N 34°38' E 134°53'4 8.8
2018-Jun-23 01:57N 34°38' E 134°57'4 8.2
2018-Jun-23 01:28N 34°37' E 135°02'4 8.8
2018-Jun-23 01:00N 34°36' E 135°07'611.7
2018-Jun-23 00:30N 34°38' E 135°14'5 9.5
2018-Jun-23 00:00N 34°42' E 135°15'0 0.1
2018-Jun-22 23:28N 34°42' E 135°15'0 0.0
2018-Jun-22 22:58N 34°42' E 135°15'0 0.0
2018-Jun-22 22:28N 34°42' E 135°15'0 0.0
2018-Jun-22 22:01N 34°42' E 135°15'0 0.0
2018-Jun-22 21:30N 34°42' E 135°15'0 0.0
2018-Jun-22 21:00N 34°42' E 135°15'0 0.0
2018-Jun-22 20:28N 34°42' E 135°15'0 0.0
2018-Jun-22 19:58N 34°42' E 135°15'0 0.0
2018-Jun-22 19:28N 34°42' E 135°15'0 0.0
2018-Jun-22 18:46N 34°42' E 135°15'0 0.0
2018-Jun-22 18:28N 34°42' E 135°15'0 0.0
2018-Jun-22 17:52N 34°42' E 135°15'0 0.0
2018-Jun-22 17:22N 34°42' E 135°15'0 0.0
2018-Jun-22 16:58N 34°42' E 135°15'0 0.0
2018-Jun-22 16:28N 34°42' E 135°15'0 0.0
2018-Jun-22 15:59N 34°42' E 135°15'0 0.0
2018-Jun-22 15:28N 34°42' E 135°15'0 0.0
2018-Jun-22 14:58N 34°42' E 135°15'0 0.0
2018-Jun-22 14:29N 34°42' E 135°15'0 0.0
2018-Jun-22 13:58N 34°42' E 135°15'0 0.0
2018-Jun-22 13:28N 34°42' E 135°15'0 0.0
2018-Jun-22 12:58N 34°42' E 135°15'0 0.0
2018-Jun-22 12:28N 34°42' E 135°15'0 0.0
2018-Jun-22 11:58N 34°42' E 135°15'0 0.0
2018-Jun-22 11:28N 34°42' E 135°15'0 0.0
2018-Jun-22 10:59N 34°42' E 135°15'0 0.0
2018-Jun-22 10:29N 34°42' E 135°15'0 0.3
2018-Jun-22 10:00N 34°42' E 135°15'2 4.7
2018-Jun-22 09:30N 34°40' E 135°15'1 2.4
2018-Jun-22 09:00N 34°39' E 135°15'0 0.1
2018-Jun-22 08:30N 34°39' E 135°15'0 0.0
2018-Jun-22 08:00N 34°39' E 135°15'0 0.1
2018-Jun-22 07:30N 34°39' E 135°15'0 0.0
2018-Jun-22 06:54N 34°39' E 135°15'0 0.0
2018-Jun-22 06:30N 34°39' E 135°15'0 0.0
2018-Jun-22 06:00N 34°39' E 135°15'0 0.1
2018-Jun-22 05:30N 34°39' E 135°15'0 0.0
2018-Jun-22 05:00N 34°39' E 135°15'0 0.0
2018-Jun-22 04:24N 34°39' E 135°15'0 0.0
2018-Jun-22 04:00N 34°39' E 135°15'0 0.0
2018-Jun-22 03:24N 34°39' E 135°15'0 0.0
2018-Jun-22 03:00N 34°39' E 135°15'0 0.0
2018-Jun-22 02:30N 34°39' E 135°15'0 0.0
2018-Jun-22 02:00N 34°39' E 135°15'0 0.0
2018-Jun-22 01:24N 34°39' E 135°15'0 0.1
2018-Jun-22 01:00N 34°39' E 135°15'0 0.0
2018-Jun-22 00:18N 34°39' E 135°15'0 0.0
2018-Jun-22 00:00N 34°39' E 135°15'2 5.0
2018-Jun-21 23:30N 34°37' E 135°13'510.5
2018-Jun-21 23:00N 34°35' E 135°07'611.1
2018-Jun-21 22:26N 34°37' E 134°59'610.5
2018-Jun-21 21:50N 34°38' E 134°52'411.2
2018-Jun-21 21:30N 34°41' E 134°49'1 0.2
2018-Jun-21 13:10N 34°42' E 134°49'2 9.8
2018-Jun-21 13:00N 34°41' E 134°49'0 0.2
2018-Jun-21 12:21N 34°40' E 134°49'0 0.0
2018-Jun-21 11:51N 34°40' E 134°49'0 0.0
2018-Jun-21 11:27N 34°40' E 134°49'0 0.0
2018-Jun-21 10:57N 34°40' E 134°49'0 0.0
2018-Jun-21 10:27N 34°40' E 134°49'0 0.0
2018-Jun-21 09:57N 34°40' E 134°49'0 0.0
2018-Jun-21 09:27N 34°40' E 134°49'0 0.0
2018-Jun-21 07:57N 34°40' E 134°49'0 0.0
2018-Jun-21 04:51N 34°41' E 134°49'0 0.0
2018-Jun-21 04:27N 34°40' E 134°49'0 0.0
2018-Jun-21 03:54N 34°40' E 134°49'0 0.0
2018-Jun-21 03:24N 34°40' E 134°49'0 0.0
2018-Jun-21 02:39N 34°40' E 134°49'0 0.0
2018-Jun-21 02:18N 34°40' E 134°49'0 0.0
2018-Jun-21 02:00N 34°40' E 134°49'0 0.0
2018-Jun-21 01:30N 34°40' E 134°49'0 0.0
2018-Jun-21 01:00N 34°40' E 134°49'0 0.0
2018-Jun-21 00:27N 34°40' E 134°49'0 0.0
2018-Jun-20 23:57N 34°40' E 134°49'0 0.0
2018-Jun-20 23:27N 34°40' E 134°49'0 0.0
2018-Jun-20 22:57N 34°40' E 134°49'0 0.0
2018-Jun-20 22:27N 34°40' E 134°49'0 0.0
2018-Jun-20 21:57N 34°40' E 134°49'0 0.0
2018-Jun-20 21:28N 34°40' E 134°49'0 0.0
2018-Jun-20 20:58N 34°40' E 134°49'0 0.0
2018-Jun-20 20:28N 34°40' E 134°49'0 0.0
2018-Jun-20 19:58N 34°40' E 134°49'0 0.0
2018-Jun-20 19:28N 34°40' E 134°49'0 0.0
2018-Jun-20 18:55N 34°40' E 134°49'0 0.1
2018-Jun-20 17:46N 34°41' E 134°49'0 0.0
2018-Jun-20 17:28N 34°41' E 134°49'0 0.0
2018-Jun-20 16:58N 34°41' E 134°49'0 0.0
2018-Jun-20 16:28N 34°41' E 134°49'0 0.0
2018-Jun-20 15:52N 34°41' E 134°49'0 0.0
2018-Jun-20 15:28N 34°41' E 134°49'0 0.0
2018-Jun-20 14:58N 34°41' E 134°49'0 0.0
2018-Jun-20 14:16N 34°40' E 134°49'0 0.1
2018-Jun-20 13:58N 34°40' E 134°49'0 0.1
2018-Jun-20 13:22N 34°40' E 134°49'0 0.0
2018-Jun-20 12:58N 34°40' E 134°49'0 0.0
2018-Jun-20 12:28N 34°40' E 134°49'0 0.0
2018-Jun-20 11:58N 34°40' E 134°49'0 0.0
2018-Jun-20 11:19N 34°40' E 134°49'0 0.0
2018-Jun-20 10:58N 34°40' E 134°49'0 0.0
2018-Jun-20 10:28N 34°40' E 134°49'0 0.0
2018-Jun-20 09:52N 34°40' E 134°49'0 0.0
2018-Jun-20 09:28N 34°40' E 134°49'0 0.0
2018-Jun-20 08:58N 34°40' E 134°49'0 0.0
2018-Jun-20 08:28N 34°40' E 134°49'0 0.0
2018-Jun-20 07:58N 34°41' E 134°49'0 0.0
2018-Jun-20 07:16N 34°41' E 134°49'0 0.0
2018-Jun-20 06:58N 34°41' E 134°49'0 0.0
2018-Jun-20 06:28N 34°41' E 134°49'0 0.1
2018-Jun-20 05:55N 34°41' E 134°49'0 0.0
2018-Jun-20 03:22N 34°41' E 134°49'0 0.1
2018-Jun-20 02:58N 34°40' E 134°49'0 0.0
2018-Jun-20 02:28N 34°40' E 134°49'0 0.0
2018-Jun-20 01:58N 34°40' E 134°49'2 3.3
2018-Jun-20 01:14N 34°43' E 134°51'1 6.5
2018-Jun-20 01:01N 34°41' E 134°50'1 0.4
2018-Jun-19 22:04N 34°42' E 134°52'1 2.9
2018-Jun-19 21:40N 34°41' E 134°51'1 9.6
2018-Jun-19 21:30N 34°40' E 134°49'0 0.4
2018-Jun-19 20:28N 34°40' E 134°49'0 0.1
2018-Jun-19 19:55N 34°40' E 134°49'0 0.0
2018-Jun-19 16:49N 34°40' E 134°49'0 0.1
2018-Jun-19 16:07N 34°40' E 134°49'0 0.2
2018-Jun-19 15:49N 34°40' E 134°49'0 0.1
2018-Jun-19 15:25N 34°40' E 134°49'8 8.9
2018-Jun-19 14:35N 34°36' E 134°41'210.7
2018-Jun-19 14:23N 34°35' E 134°39'710.9
2018-Jun-19 13:44N 34°31' E 134°32'211.1
2018-Jun-19 13:30N 34°30' E 134°29'810.8
2018-Jun-19 12:47N 34°26' E 134°21'  

Dump ship's entire track history